Terminal Aerodrome Forecast
Issued by NWS

Home | Current Version | Previous Version | Graphics & Text | Print | Product List | Glossary On
Versions: 1 2 3 4 5 6 7 8 9 10 11 12 13 14 15 16 17 18
043
FTUS43 KICT 201733
TAFSLN
TAF
KSLN 201733Z 2018/2118 15007KT 4SM BR OVC006
     FM202000 18007KT P6SM OVC010
     FM210000 21006KT P6SM BKN015
     FM210300 21005KT P6SM BKN020
     FM210600 23006KT P6SM SCT035
     FM211400 25005KT 5SM BR SCT040=

USA.gov is the U.S. government's official web portal to all federal, state and local government web resources and services.